Time;durP1;ratioP1;P1;durP2;ratioP2;P2;SDS_P1;SDS_P2;PMS_P1;PMS_P2;Temp;Humidity;BMP_temperature;BMP_pressure;BME280_temperature;BME280_humidity;BME280_pressure;Samples;Min_cycle;Max_cycle;Signal;HPM_P1;HPM_P2
2021/04/06 00:02:40;;;;;;;4.32;0.50;;;1.30;96.60;;;;;;10404986;28;20130;-61
2021/04/06 00:07:43;;;;;;;5.55;0.45;;;1.30;96.30;;;;;;10403763;28;20063;-61
2021/04/06 00:12:47;;;;;;;2.97;0.70;;;1.20;95.80;;;;;;10401953;28;20110;-61
2021/04/06 00:17:52;;;;;;;1.90;0.30;;;1.20;95.70;;;;;;10401872;28;20052;-61
2021/04/06 00:22:55;;;;;;;4.97;0.45;;;1.20;96.00;;;;;;10408427;28;20045;-61
2021/04/06 00:27:57;;;;;;;7.53;0.43;;;1.30;96.10;;;;;;10408989;28;20045;-61
2021/04/06 00:33:06;;;;;;;2.80;0.32;;;1.10;95.30;;;;;;10403636;28;20143;-61
2021/04/06 00:38:12;;;;;;;2.33;0.47;;;1.10;95.10;;;;;;10404987;28;20060;-61
2021/04/06 00:43:15;;;;;;;8.85;0.50;;;1.20;95.10;;;;;;10404822;28;20135;-61
2021/04/06 00:48:19;;;;;;;4.65;0.40;;;1.20;94.90;;;;;;10401459;28;20053;-61
2021/04/06 00:53:22;;;;;;;5.78;0.68;;;1.20;94.60;;;;;;10403529;28;20041;-61
2021/04/06 00:58:25;;;;;;;3.53;0.60;;;1.30;94.50;;;;;;10403027;28;20048;-61
2021/04/06 01:03:27;;;;;;;1.60;0.30;;;1.30;95.60;;;;;;10402897;28;20073;-62
2021/04/06 01:08:28;;;;;;;4.57;0.50;;;1.30;94.90;;;;;;10409274;28;20495;-62
2021/04/06 01:13:32;;;;;;;5.85;0.85;;;1.30;94.30;;;;;;10411010;28;20046;-62
2021/04/06 01:18:35;;;;;;;5.00;0.50;;;1.30;94.70;;;;;;10403906;28;20053;-63
2021/04/06 01:23:37;;;;;;;5.40;0.35;;;1.30;95.70;;;;;;10397763;28;20119;-63
2021/04/06 01:28:40;;;;;;;7.40;0.47;;;1.20;96.50;;;;;;10403513;28;20053;-62
2021/04/06 01:33:42;;;;;;;5.25;0.82;;;1.20;97.40;;;;;;10404576;28;20053;-62
2021/04/06 01:38:44;;;;;;;5.03;0.43;;;1.20;98.20;;;;;;10403510;28;20056;-62
2021/04/06 01:43:50;;;;;;;7.20;0.40;;;1.20;97.70;;;;;;10403583;28;20522;-63
2021/04/06 01:48:52;;;;;;;4.03;0.30;;;1.20;97.80;;;;;;10406147;28;20049;-63
2021/04/06 01:53:53;;;;;;;8.45;0.90;;;1.20;97.30;;;;;;10402341;28;20069;-62
2021/04/06 01:58:58;;;;;;;2.00;0.63;;;1.20;97.00;;;;;;10398674;28;20049;-62
2021/04/06 02:04:06;;;;;;;2.67;0.40;;;1.20;96.90;;;;;;10369388;28;20069;-62
2021/04/06 02:09:09;;;;;;;7.57;0.40;;;1.20;97.50;;;;;;10401832;28;20053;-63
2021/04/06 02:14:15;;;;;;;3.30;0.50;;;1.20;97.70;;;;;;10398730;28;20223;-62
2021/04/06 02:19:27;;;;;;;8.45;0.50;;;1.10;98.00;;;;;;10400457;28;20049;-63
2021/04/06 02:24:30;;;;;;;0.80;0.60;;;1.20;99.30;;;;;;10398600;28;20060;-62
2021/04/06 02:29:36;;;;;;;1.80;0.50;;;1.30;99.90;;;;;;10406581;28;20102;-62
2021/04/06 02:34:40;;;;;;;2.33;0.30;;;1.40;99.90;;;;;;10403569;28;20048;-63
2021/04/06 02:39:42;;;;;;;4.00;0.80;;;1.50;99.90;;;;;;10407813;28;20061;-62
2021/04/06 02:44:43;;;;;;;1.88;0.70;;;1.50;99.90;;;;;;10409815;28;20053;-62
2021/04/06 02:49:45;;;;;;;1.95;0.45;;;1.50;99.90;;;;;;10408916;28;20098;-62
2021/04/06 02:54:46;;;;;;;2.10;0.57;;;1.60;99.90;;;;;;10407433;28;20045;-63
2021/04/06 02:59:48;;;;;;;8.32;0.63;;;1.80;99.90;;;;;;10410727;28;20078;-60
2021/04/06 03:04:49;;;;;;;2.08;0.25;;;1.90;99.90;;;;;;10414576;28;20118;-60
2021/04/06 03:09:56;;;;;;;3.75;0.40;;;2.00;99.90;;;;;;10413159;28;20057;-60
2021/04/06 03:14:59;;;;;;;0.70;0.20;;;2.00;99.90;;;;;;10409447;28;20123;-60
2021/04/06 03:20:00;;;;;;;2.78;0.50;;;1.90;99.90;;;;;;10407582;28;20392;-60
2021/04/06 03:25:02;;;;;;;4.13;1.38;;;1.80;99.90;;;;;;10405888;28;20570;-60
2021/04/06 03:30:04;;;;;;;4.07;0.60;;;1.60;99.90;;;;;;10403297;28;20083;-60
2021/04/06 03:35:06;;;;;;;4.35;0.32;;;1.70;99.90;;;;;;10408267;28;20042;-60
2021/04/06 03:40:08;;;;;;;2.13;0.70;;;1.80;99.90;;;;;;10409394;28;21724;-60
2021/04/06 03:45:10;;;;;;;2.28;0.30;;;2.00;99.90;;;;;;10403287;28;20049;-59
2021/04/06 03:50:11;;;;;;;3.15;0.68;;;1.90;99.90;;;;;;10400806;28;20121;-60
2021/04/06 03:55:16;;;;;;;1.23;0.50;;;1.90;99.90;;;;;;10403886;28;20049;-59
2021/04/06 04:00:18;;;;;;;5.78;0.50;;;1.90;99.90;;;;;;10405388;28;20053;-59
2021/04/06 04:05:25;;;;;;;4.63;0.43;;;1.90;99.90;;;;;;10407366;28;20556;-59
2021/04/06 04:10:26;;;;;;;2.22;0.70;;;1.90;99.90;;;;;;10409613;28;20042;-59
2021/04/06 04:15:28;;;;;;;2.13;0.40;;;2.00;99.90;;;;;;10401584;28;20130;-60
2021/04/06 04:20:29;;;;;;;2.10;0.70;;;2.10;99.90;;;;;;10406925;28;20150;-60
2021/04/06 04:25:30;;;;;;;0.80;0.38;;;2.00;99.90;;;;;;10406779;28;20091;-59
2021/04/06 04:30:41;;;;;;;2.53;0.40;;;1.70;99.90;;;;;;10406530;28;20072;-59
2021/04/06 04:35:43;;;;;;;0.65;0.38;;;1.60;99.90;;;;;;10409114;28;20059;-59
2021/04/06 04:40:46;;;;;;;1.27;0.50;;;1.50;99.90;;;;;;10403269;28;20435;-59
2021/04/06 04:45:47;;;;;;;0.55;0.30;;;1.50;99.90;;;;;;10405753;28;20153;-59
2021/04/06 04:50:48;;;;;;;3.35;0.30;;;1.60;99.90;;;;;;10405326;28;22261;-59
2021/04/06 04:55:49;;;;;;;2.03;0.40;;;1.60;99.90;;;;;;10403192;28;20048;-59
2021/04/06 05:00:50;;;;;;;2.80;0.43;;;1.70;99.90;;;;;;10401891;28;20142;-59
2021/04/06 05:05:52;;;;;;;2.13;0.60;;;1.70;99.90;;;;;;10399084;28;20045;-59
2021/04/06 05:10:54;;;;;;;4.00;0.57;;;1.90;99.90;;;;;;10404508;28;20053;-59
2021/04/06 05:15:55;;;;;;;7.00;0.52;;;2.00;99.90;;;;;;10401985;28;20072;-59
2021/04/06 05:20:56;;;;;;;4.32;1.40;;;1.90;99.90;;;;;;10400920;28;20040;-59
2021/04/06 05:25:58;;;;;;;4.65;0.70;;;2.00;99.90;;;;;;10400735;28;20461;-59
2021/04/06 05:30:59;;;;;;;1.02;0.40;;;2.00;99.90;;;;;;10403275;28;20052;-59
2021/04/06 05:36:00;;;;;;;0.95;0.30;;;2.00;99.90;;;;;;10403545;28;20045;-59
2021/04/06 05:41:01;;;;;;;0.85;0.40;;;2.00;99.90;;;;;;10402264;28;20099;-59
2021/04/06 05:46:04;;;;;;;4.18;1.02;;;2.00;99.90;;;;;;10403205;28;20392;-59
2021/04/06 05:51:06;;;;;;;2.85;0.70;;;2.00;99.90;;;;;;10402468;28;20103;-59
2021/04/06 05:56:07;;;;;;;1.75;0.50;;;2.10;99.90;;;;;;10402073;28;20049;-59
2021/04/06 06:01:09;;;;;;;2.30;0.30;;;2.10;99.90;;;;;;10403818;28;20102;-59
2021/04/06 06:06:14;;;;;;;3.53;0.68;;;2.10;99.90;;;;;;10402523;28;20045;-59
2021/04/06 06:11:15;;;;;;;4.57;0.63;;;2.10;99.90;;;;;;10401278;28;20102;-58
2021/04/06 06:16:20;;;;;;;8.18;0.90;;;2.20;99.90;;;;;;10400726;28;20519;-58
2021/04/06 06:21:23;;;;;;;6.78;0.60;;;2.20;99.90;;;;;;10401532;28;20049;-59
2021/04/06 06:26:24;;;;;;;3.15;0.47;;;2.40;99.90;;;;;;10401622;28;20099;-59
2021/04/06 06:31:38;;;;;;;4.13;0.93;;;2.40;99.90;;;;;;10395132;28;20079;-59
2021/04/06 06:36:40;;;;;;;4.63;0.75;;;2.40;99.90;;;;;;10349804;28;20049;-59
2021/04/06 06:41:56;;;;;;;10.55;0.82;;;2.40;99.90;;;;;;10403214;28;20040;-59
2021/04/06 06:47:07;;;;;;;3.97;0.67;;;2.40;99.90;;;;;;10396235;28;20053;-58
2021/04/06 06:52:28;;;;;;;6.57;0.90;;;2.50;97.20;;;;;;10404053;28;20103;-60
2021/04/06 06:57:32;;;;;;;3.35;0.40;;;2.60;97.10;;;;;;10398888;28;20049;-60
2021/04/06 07:02:34;;;;;;;8.02;0.70;;;2.60;97.80;;;;;;10398593;28;20053;-59
2021/04/06 07:07:56;;;;;;;6.25;0.50;;;2.60;97.40;;;;;;10397801;28;20132;-58
2021/04/06 07:13:02;;;;;;;6.38;0.73;;;2.70;97.50;;;;;;10398975;28;20052;-59
2021/04/06 07:18:25;;;;;;;9.10;1.80;;;2.70;98.50;;;;;;10402064;28;20096;-59
2021/04/06 07:23:38;;;;;;;3.28;0.57;;;2.70;95.70;;;;;;10409892;28;20073;-59
2021/04/06 07:28:41;;;;;;;5.45;0.93;;;2.70;94.20;;;;;;10356162;28;20109;-59
2021/04/06 07:33:45;;;;;;;7.20;1.00;;;2.80;93.70;;;;;;10408157;28;20049;-58
2021/04/06 07:38:52;;;;;;;7.07;1.35;;;2.90;94.00;;;;;;10409812;28;20053;-59
2021/04/06 07:43:56;;;;;;;12.70;0.82;;;3.10;93.80;;;;;;10407419;28;20118;-59
2021/04/06 07:48:57;;;;;;;6.60;0.70;;;3.20;92.70;;;;;;10404117;28;20041;-61
2021/04/06 07:54:08;;;;;;;2.65;1.15;;;3.10;91.80;;;;;;10402282;28;20392;-59
2021/04/06 07:59:19;;;;;;;3.95;0.50;;;3.10;91.30;;;;;;10356336;28;20057;-60
2021/04/06 08:04:21;;;;;;;5.55;0.55;;;3.10;90.00;;;;;;10407581;28;20057;-59
2021/04/06 08:09:43;;;;;;;7.00;1.25;;;3.20;88.30;;;;;;10404471;28;20604;-59
2021/04/06 08:14:51;;;;;;;8.23;0.70;;;3.30;85.60;;;;;;10363026;28;20052;-59
2021/04/06 08:20:13;;;;;;;4.30;0.68;;;3.40;85.20;;;;;;10414672;28;20087;-59
2021/04/06 08:25:26;;;;;;;4.63;1.13;;;3.40;82.70;;;;;;10377332;28;20042;-58
2021/04/06 08:30:38;;;;;;;5.75;0.35;;;3.40;83.50;;;;;;10445685;28;20525;-60
2021/04/06 08:35:45;;;;;;;4.65;0.50;;;3.60;84.50;;;;;;10333774;28;20123;-59
2021/04/06 08:41:04;;;;;;;7.18;0.70;;;3.60;84.40;;;;;;10401253;28;20046;-59
2021/04/06 08:46:09;;;;;;;4.93;0.52;;;3.50;81.80;;;;;;10401734;28;20033;-59
2021/04/06 08:51:23;;;;;;;6.18;0.50;;;3.80;82.90;;;;;;10404946;28;20049;-60
2021/04/06 08:56:27;;;;;;;4.43;0.52;;;4.00;82.40;;;;;;10401049;28;20114;-59
2021/04/06 09:01:28;;;;;;;5.95;0.60;;;4.00;78.40;;;;;;10404295;28;20046;-59
2021/04/06 09:06:29;;;;;;;4.55;0.32;;;4.30;79.20;;;;;;10403224;28;20053;-58
2021/04/06 09:11:31;;;;;;;6.63;0.40;;;4.30;76.40;;;;;;10403717;28;20448;-59
2021/04/06 09:16:35;;;;;;;4.53;0.32;;;4.50;75.60;;;;;;10406433;28;20056;-59
2021/04/06 09:21:39;;;;;;;1.70;0.38;;;4.40;74.60;;;;;;10399994;28;20102;-60
2021/04/06 09:26:42;;;;;;;5.65;0.40;;;4.50;71.30;;;;;;10398307;28;20056;-59
2021/04/06 09:31:45;;;;;;;3.83;0.88;;;4.90;71.00;;;;;;10402725;28;20052;-59
2021/04/06 09:36:57;;;;;;;3.08;0.73;;;5.10;69.80;;;;;;10404977;28;20198;-58
2021/04/06 09:41:59;;;;;;;3.13;0.30;;;4.90;70.20;;;;;;10400665;28;20102;-59
2021/04/06 09:47:05;;;;;;;2.45;0.50;;;5.10;69.60;;;;;;10394993;28;20051;-59
2021/04/06 09:52:18;;;;;;;1.95;0.32;;;5.10;70.40;;;;;;10404473;28;20053;-59
2021/04/06 09:57:20;;;;;;;2.42;0.60;;;4.80;71.20;;;;;;10405754;28;20053;-60
2021/04/06 10:02:27;;;;;;;2.85;0.30;;;4.50;71.70;;;;;;10420499;28;20040;-59
2021/04/06 10:07:34;;;;;;;3.30;0.70;;;4.50;74.10;;;;;;10420299;28;20048;-58
2021/04/06 10:12:36;;;;;;;2.85;0.82;;;4.70;74.60;;;;;;10401946;28;20057;-60
2021/04/06 10:17:40;;;;;;;2.47;0.50;;;4.60;72.50;;;;;;10404252;28;20053;-59
2021/04/06 10:22:53;;;;;;;4.05;0.45;;;4.60;73.20;;;;;;10398956;28;20053;-59
2021/04/06 10:27:57;;;;;;;3.63;1.95;;;4.80;70.10;;;;;;10403251;28;20037;-60
2021/04/06 10:33:08;;;;;;;3.05;0.90;;;5.00;68.60;;;;;;10399013;28;20496;-59
2021/04/06 10:38:20;;;;;;;2.28;0.38;;;5.40;68.00;;;;;;10350190;28;20045;-60
2021/04/06 10:43:21;;;;;;;1.95;0.45;;;5.10;67.40;;;;;;10400730;28;20056;-60
2021/04/06 10:48:25;;;;;;;2.08;0.40;;;5.00;67.20;;;;;;10404992;28;20053;-59
2021/04/06 10:53:41;;;;;;;4.05;0.40;;;5.10;67.80;;;;;;10401075;28;21737;-59
2021/04/06 10:58:53;;;;;;;1.80;0.20;;;4.70;72.10;;;;;;10364838;28;20064;-60
2021/04/06 11:03:57;;;;;;;2.90;0.40;;;2.90;96.50;;;;;;10418024;28;20132;-60
2021/04/06 11:08:59;;;;;;;3.95;0.60;;;2.40;99.90;;;;;;10411460;28;20055;-61
2021/04/06 11:14:09;;;;;;;2.53;0.80;;;2.50;99.90;;;;;;10409204;28;20480;-58
2021/04/06 11:19:13;;;;;;;1.42;0.50;;;2.90;99.90;;;;;;10407180;28;20053;-59
2021/04/06 11:24:17;;;;;;;2.03;0.50;;;3.30;95.50;;;;;;10407257;28;20048;-58
2021/04/06 11:29:24;;;;;;;3.05;0.57;;;4.30;93.10;;;;;;10410930;28;20119;-58
2021/04/06 11:34:27;;;;;;;6.38;0.60;;;4.90;89.30;;;;;;10412628;28;20053;-59
2021/04/06 11:39:34;;;;;;;3.03;1.58;;;5.40;84.10;;;;;;10409192;28;20562;-59
2021/04/06 11:44:36;;;;;;;3.65;0.80;;;6.10;75.40;;;;;;10407609;28;20057;-59
2021/04/06 11:49:37;;;;;;;2.50;0.43;;;6.50;72.10;;;;;;10406153;28;20053;-58
2021/04/06 11:54:41;;;;;;;1.17;0.25;;;6.60;71.80;;;;;;10408906;28;20080;-60
2021/04/06 11:59:44;;;;;;;2.00;0.40;;;5.70;67.00;;;;;;10410732;28;20068;-60
2021/04/06 12:04:45;;;;;;;3.50;0.40;;;5.60;70.50;;;;;;10405958;28;20445;-60
2021/04/06 12:09:46;;;;;;;1.77;0.40;;;5.70;70.50;;;;;;10400767;28;20102;-60
2021/04/06 12:14:49;;;;;;;1.40;0.20;;;5.60;71.00;;;;;;10442780;28;20048;-60
2021/04/06 12:19:50;;;;;;;2.45;0.28;;;5.90;69.90;;;;;;10447007;28;20387;-60
2021/04/06 12:24:51;;;;;;;0.57;0.10;;;6.30;59.20;;;;;;10411838;28;20111;-60
2021/04/06 12:29:52;;;;;;;1.65;0.10;;;6.90;59.80;;;;;;10405536;28;20407;-59
2021/04/06 12:34:54;;;;;;;1.10;0.10;;;6.60;58.70;;;;;;10404169;28;20072;-59
2021/04/06 12:39:55;;;;;;;2.60;0.20;;;6.80;58.90;;;;;;10406009;28;20400;-59
2021/04/06 12:44:56;;;;;;;0.90;0.20;;;6.70;59.00;;;;;;10405144;28;20064;-59
2021/04/06 12:49:57;;;;;;;0.40;0.20;;;6.40;59.10;;;;;;10407979;28;20048;-59
2021/04/06 12:54:59;;;;;;;0.85;0.20;;;6.90;55.40;;;;;;10408088;28;20052;-59
2021/04/06 13:00:00;;;;;;;0.75;0.10;;;7.50;54.80;;;;;;10405066;28;20091;-59
2021/04/06 13:05:02;;;;;;;0.30;0.10;;;7.70;53.60;;;;;;10404943;28;20049;-60
2021/04/06 13:10:05;;;;;;;0.05;0.05;;;8.70;52.20;;;;;;10400425;28;20186;-59
2021/04/06 13:15:08;;;;;;;1.30;0.20;;;8.20;53.90;;;;;;10402421;28;20697;-59
2021/04/06 13:20:12;;;;;;;1.08;0.25;;;7.20;57.50;;;;;;10417338;28;20052;-60
2021/04/06 13:25:14;;;;;;;1.95;0.20;;;8.00;55.60;;;;;;10399334;28;20061;-59
2021/04/06 13:30:18;;;;;;;0.93;0.15;;;8.20;50.30;;;;;;10404647;28;20472;-59
2021/04/06 13:35:20;;;;;;;1.33;0.05;;;8.40;51.60;;;;;;10398700;28;23814;-59
2021/04/06 13:40:22;;;;;;;0.22;0.03;;;8.00;50.50;;;;;;10404266;28;20202;-59
2021/04/06 13:45:24;;;;;;;1.85;0.40;;;7.30;51.50;;;;;;10403432;28;20350;-59
2021/04/06 13:50:35;;;;;;;1.55;0.00;;;6.40;52.30;;;;;;10403682;28;20065;-59
2021/04/06 13:55:36;;;;;;;0.10;0.00;;;6.10;59.60;;;;;;10403931;28;20053;-60
2021/04/06 14:00:44;;;;;;;1.50;0.20;;;4.00;80.00;;;;;;10400233;28;20085;-59
2021/04/06 14:05:46;;;;;;;0.20;0.10;;;4.40;84.40;;;;;;10385571;28;20118;-59
2021/04/06 14:10:48;;;;;;;1.65;0.15;;;7.00;74.50;;;;;;10403962;28;20369;-60
2021/04/06 14:15:50;;;;;;;2.75;0.50;;;8.40;61.30;;;;;;10400819;28;20045;-60
2021/04/06 14:20:52;;;;;;;2.88;0.73;;;8.60;60.90;;;;;;10407085;28;20060;-60
2021/04/06 14:25:55;;;;;;;0.68;0.30;;;8.60;60.20;;;;;;10394041;28;20083;-60
2021/04/06 14:30:57;;;;;;;1.85;0.20;;;7.60;61.80;;;;;;10400772;28;20053;-59
2021/04/06 14:35:59;;;;;;;0.68;0.10;;;7.70;61.90;;;;;;10398809;28;20098;-60
2021/04/06 14:41:00;;;;;;;1.35;0.10;;;8.60;57.30;;;;;;10397823;28;20046;-60
2021/04/06 14:46:07;;;;;;;1.00;0.10;;;8.90;54.00;;;;;;10397414;28;20060;-59
2021/04/06 14:51:19;;;;;;;1.80;0.10;;;7.30;58.00;;;;;;10396476;28;20052;-60
2021/04/06 14:56:21;;;;;;;1.85;0.13;;;6.70;57.80;;;;;;10399729;28;20377;-60
2021/04/06 15:01:25;;;;;;;2.30;0.15;;;6.40;60.50;;;;;;10396885;28;20068;-59
2021/04/06 15:06:29;;;;;;;4.35;0.30;;;5.70;70.20;;;;;;10412714;28;20060;-60
2021/04/06 15:11:33;;;;;;;2.05;0.30;;;4.80;84.70;;;;;;10399981;28;20060;-60
2021/04/06 15:16:34;;;;;;;1.58;0.38;;;5.40;86.00;;;;;;10401253;28;20115;-60
2021/04/06 15:21:55;;;;;;;2.17;0.38;;;5.50;84.60;;;;;;10402632;28;20045;-59
2021/04/06 15:26:56;;;;;;;1.10;0.30;;;6.60;76.20;;;;;;10397055;28;20927;-60
2021/04/06 15:32:01;;;;;;;1.02;0.10;;;7.30;71.80;;;;;;10393901;28;20262;-60
2021/04/06 15:37:04;;;;;;;0.90;0.20;;;6.50;67.50;;;;;;10399016;28;20483;-60
2021/04/06 15:42:08;;;;;;;2.13;0.95;;;6.70;68.90;;;;;;10404821;28;20049;-59
2021/04/06 15:47:09;;;;;;;2.15;0.55;;;6.20;69.90;;;;;;10409138;28;20426;-60
2021/04/06 15:52:28;;;;;;;0.60;0.38;;;6.40;67.00;;;;;;10408658;28;20045;-60
2021/04/06 15:57:29;;;;;;;0.95;0.10;;;6.40;65.00;;;;;;10406064;28;20044;-60
2021/04/06 16:02:30;;;;;;;0.70;0.10;;;5.90;69.00;;;;;;10401538;28;20049;-59
2021/04/06 16:07:33;;;;;;;0.30;0.10;;;5.20;74.50;;;;;;10408583;28;20080;-60
2021/04/06 16:12:34;;;;;;;1.65;0.35;;;3.30;99.90;;;;;;10406768;28;20060;-60
2021/04/06 16:17:35;;;;;;;1.70;0.17;;;3.70;91.30;;;;;;10413415;28;20383;-60
2021/04/06 16:22:37;;;;;;;0.73;0.73;;;4.70;95.80;;;;;;10411548;28;20550;-60
2021/04/06 16:27:39;;;;;;;0.20;0.10;;;5.10;82.40;;;;;;10411991;28;20507;-61
2021/04/06 16:32:40;;;;;;;2.20;0.20;;;5.70;79.40;;;;;;10402178;28;20048;-58
2021/04/06 16:37:41;;;;;;;0.30;0.20;;;5.80;75.40;;;;;;10409494;28;20107;-61
2021/04/06 16:42:42;;;;;;;0.60;0.10;;;6.10;73.30;;;;;;10407291;28;20053;-61
2021/04/06 16:47:44;;;;;;;1.75;0.20;;;5.70;70.80;;;;;;10411632;28;20045;-61
2021/04/06 16:52:45;;;;;;;3.17;0.20;;;5.50;70.90;;;;;;10405239;28;20111;-62
2021/04/06 16:57:47;;;;;;;1.17;0.10;;;5.30;72.20;;;;;;10408088;28;20080;-62
2021/04/06 17:02:48;;;;;;;1.20;1.10;;;5.10;72.20;;;;;;10335092;28;20053;-61
2021/04/06 17:07:50;;;;;;;1.80;1.80;;;4.70;71.90;;;;;;10088914;28;20348;-61
2021/04/06 17:12:51;;;;;;;2.95;2.75;;;4.50;73.10;;;;;;10092372;28;20044;-61
2021/04/06 17:17:52;;;;;;;2.15;2.05;;;4.20;75.90;;;;;;10086317;28;20504;-60
2021/04/06 17:22:54;;;;;;;1.45;1.45;;;4.20;76.80;;;;;;10118922;28;20100;-61
2021/04/06 17:27:56;;;;;;;0.35;0.20;;;4.20;76.30;;;;;;10261235;28;20068;-61
2021/04/06 17:33:03;;;;;;;1.38;0.32;;;4.10;77.30;;;;;;10402592;28;20091;-61
2021/04/06 17:38:06;;;;;;;0.20;0.20;;;4.20;78.70;;;;;;10408924;28;20053;-61
2021/04/06 17:43:11;;;;;;;1.05;0.20;;;4.20;78.50;;;;;;10408105;28;20049;-60
2021/04/06 17:48:13;;;;;;;1.33;1.23;;;4.00;78.50;;;;;;10247788;28;20037;-59
2021/04/06 17:53:15;;;;;;;2.85;1.58;;;3.80;82.80;;;;;;10137463;28;20051;-59
2021/04/06 17:58:17;;;;;;;2.33;2.13;;;3.40;89.70;;;;;;10107468;28;20056;-61
2021/04/06 18:03:18;;;;;;;2.05;1.95;;;3.20;92.90;;;;;;10114359;28;20701;-61
2021/04/06 18:08:20;;;;;;;2.60;2.08;;;3.00;94.20;;;;;;10113677;28;23901;-60
2021/04/06 18:13:22;;;;;;;2.13;2.00;;;2.90;94.80;;;;;;10117576;28;20049;-60
2021/04/06 18:18:23;;;;;;;2.00;1.92;;;2.80;92.20;;;;;;10116401;28;20045;-63
2021/04/06 18:23:26;;;;;;;1.63;1.52;;;2.80;91.60;;;;;;10111452;28;20068;-63
2021/04/06 18:28:28;;;;;;;1.70;1.60;;;2.60;89.90;;;;;;10105344;28;20064;-63
2021/04/06 18:33:30;;;;;;;2.03;1.92;;;2.60;89.90;;;;;;10097156;28;20862;-64
2021/04/06 18:38:34;;;;;;;4.15;2.20;;;2.60;90.10;;;;;;10107290;28;20616;-64
2021/04/06 18:43:38;;;;;;;3.90;2.20;;;2.60;90.30;;;;;;10094927;28;20419;-64
2021/04/06 18:48:40;;;;;;;1.77;1.67;;;2.60;90.60;;;;;;10108966;28;20423;-64
2021/04/06 18:53:43;;;;;;;2.25;1.88;;;2.60;91.00;;;;;;10114640;28;20105;-63
2021/04/06 18:58:44;;;;;;;2.05;1.95;;;2.60;91.30;;;;;;10103563;28;20062;-64
2021/04/06 19:03:49;;;;;;;6.50;3.13;;;2.60;91.40;;;;;;10117844;28;20788;-64
2021/04/06 19:08:51;;;;;;;2.10;2.00;;;2.60;91.50;;;;;;10094536;28;20057;-64
2021/04/06 19:13:54;;;;;;;2.38;2.28;;;2.60;91.90;;;;;;10105105;28;20041;-65
2021/04/06 19:18:55;;;;;;;4.28;2.70;;;2.60;92.20;;;;;;10109608;28;20049;-62
2021/04/06 19:23:56;;;;;;;2.45;2.35;;;2.50;93.10;;;;;;10115921;28;20680;-65
2021/04/06 19:28:59;;;;;;;1.95;0.90;;;2.40;91.00;;;;;;10261477;28;20331;-64
2021/04/06 19:34:01;;;;;;;2.35;2.25;;;2.30;91.60;;;;;;10216265;28;20063;-64
2021/04/06 19:39:06;;;;;;;2.25;2.05;;;2.30;91.20;;;;;;10120161;28;20107;-63
2021/04/06 19:44:12;;;;;;;2.60;2.50;;;2.20;91.70;;;;;;10144348;28;20044;-64
2021/04/06 19:49:13;;;;;;;2.53;2.22;;;2.20;92.20;;;;;;10130058;28;20095;-64
2021/04/06 19:54:14;;;;;;;2.47;2.38;;;2.20;92.10;;;;;;10159162;28;20056;-63
2021/04/06 19:59:15;;;;;;;3.33;3.03;;;2.10;92.00;;;;;;10130071;28;20048;-64
2021/04/06 20:04:17;;;;;;;3.28;2.65;;;2.10;92.10;;;;;;10120430;28;20052;-64
2021/04/06 20:09:18;;;;;;;3.80;0.77;;;2.10;92.10;;;;;;10285329;28;20107;-64
2021/04/06 20:14:20;;;;;;;1.38;0.70;;;2.10;92.80;;;;;;10411498;28;20041;-64
2021/04/06 20:19:22;;;;;;;1.10;0.88;;;2.00;92.60;;;;;;10406113;28;20162;-64
2021/04/06 20:24:23;;;;;;;2.25;0.93;;;2.00;93.10;;;;;;10406050;28;20846;-65
2021/04/06 20:29:24;;;;;;;1.83;0.80;;;2.00;93.40;;;;;;10404536;28;20126;-63
2021/04/06 20:34:26;;;;;;;3.20;0.93;;;2.00;93.20;;;;;;10408672;28;20399;-64
2021/04/06 20:39:29;;;;;;;1.00;0.70;;;2.10;93.50;;;;;;10408241;28;20158;-64
2021/04/06 20:44:30;;;;;;;1.55;0.60;;;2.10;93.40;;;;;;10404544;28;20049;-65
2021/04/06 20:49:32;;;;;;;0.65;0.60;;;2.20;93.50;;;;;;10405638;28;20084;-63
2021/04/06 20:54:33;;;;;;;1.88;1.15;;;2.20;92.90;;;;;;10403775;28;20057;-65
2021/04/06 20:59:34;;;;;;;9.82;2.70;;;2.20;92.50;;;;;;10406058;28;20067;-64
2021/04/06 21:04:35;;;;;;;7.95;2.17;;;2.20;93.00;;;;;;10406046;28;20049;-65
2021/04/06 21:09:37;;;;;;;8.57;2.15;;;2.10;94.40;;;;;;10411051;28;20053;-64
2021/04/06 21:14:40;;;;;;;9.13;2.08;;;2.10;94.10;;;;;;10435581;28;20053;-64
2021/04/06 21:19:41;;;;;;;7.00;1.90;;;2.00;94.20;;;;;;10403131;28;20072;-65
2021/04/06 21:24:43;;;;;;;1.42;0.60;;;2.00;93.60;;;;;;10407136;28;20057;-64
2021/04/06 21:29:44;;;;;;;5.05;0.98;;;1.90;94.20;;;;;;10404535;28;20061;-65
2021/04/06 21:34:46;;;;;;;2.28;1.17;;;1.90;94.80;;;;;;10407527;28;20060;-63
2021/04/06 21:39:47;;;;;;;2.28;1.30;;;2.00;95.10;;;;;;10402506;28;20090;-64
2021/04/06 21:44:50;;;;;;;1.92;0.90;;;2.00;95.20;;;;;;10411947;28;20126;-64
2021/04/06 21:49:51;;;;;;;3.97;1.90;;;2.00;95.20;;;;;;10405384;28;20063;-65
2021/04/06 21:54:52;;;;;;;3.90;1.35;;;2.00;94.90;;;;;;10401669;28;20443;-65
2021/04/06 21:59:53;;;;;;;4.28;1.50;;;1.90;96.00;;;;;;10405947;28;20080;-65
2021/04/06 22:04:54;;;;;;;3.70;1.20;;;1.90;98.20;;;;;;10397437;28;20045;-64
2021/04/06 22:09:56;;;;;;;6.32;1.63;;;1.90;99.80;;;;;;10400950;28;20067;-64
2021/04/06 22:14:57;;;;;;;2.22;1.33;;;1.90;99.70;;;;;;10407268;28;20056;-65
2021/04/06 22:19:58;;;;;;;1.55;0.93;;;1.80;99.90;;;;;;10406153;28;20115;-63
2021/04/06 22:24:59;;;;;;;1.65;1.10;;;1.50;99.90;;;;;;10402206;28;20049;-63
2021/04/06 22:30:01;;;;;;;5.38;1.40;;;1.50;99.90;;;;;;10396214;28;20476;-63
2021/04/06 22:35:06;;;;;;;2.80;1.70;;;1.40;99.90;;;;;;10404123;28;20142;-63
2021/04/06 22:40:07;;;;;;;2.72;1.45;;;1.20;99.90;;;;;;10399284;28;20108;-63
2021/04/06 22:45:18;;;;;;;7.28;2.40;;;1.00;99.90;;;;;;10404649;28;20057;-63
2021/04/06 22:50:25;;;;;;;5.20;2.42;;;1.10;99.90;;;;;;10401007;28;20058;-63
2021/04/06 22:55:35;;;;;;;5.95;1.70;;;1.30;99.90;;;;;;10370051;28;20082;-63
2021/04/06 23:00:46;;;;;;;6.80;1.48;;;1.30;99.90;;;;;;10374359;28;20058;-63
2021/04/06 23:05:48;;;;;;;1.83;1.23;;;1.30;99.90;;;;;;10367235;28;20080;-63
2021/04/06 23:10:49;;;;;;;2.45;1.35;;;1.40;99.90;;;;;;10375368;28;20855;-63
2021/04/06 23:15:50;;;;;;;1.67;0.80;;;1.50;99.90;;;;;;10368341;28;20053;-63
2021/04/06 23:20:52;;;;;;;3.30;1.08;;;1.60;99.90;;;;;;10363285;28;20057;-63
2021/04/06 23:25:53;;;;;;;2.10;0.88;;;1.70;99.90;;;;;;10367754;28;20065;-62
2021/04/06 23:30:54;;;;;;;4.00;0.90;;;1.70;99.90;;;;;;10363248;28;20041;-62
2021/04/06 23:35:55;;;;;;;1.35;0.80;;;1.60;99.90;;;;;;10370893;28;20049;-62
2021/04/06 23:40:56;;;;;;;1.13;0.70;;;1.60;99.90;;;;;;10363049;28;20159;-63
2021/04/06 23:45:57;;;;;;;2.08;0.90;;;1.60;99.90;;;;;;10364900;28;20053;-63
2021/04/06 23:50:59;;;;;;;3.53;0.80;;;1.50;99.90;;;;;;10372178;28;20045;-63
2021/04/06 23:56:00;;;;;;;0.20;0.20;;;1.50;99.90;;;;;;10406640;28;20073;-64
